Time;durP1;ratioP1;P1;durP2;ratioP2;P2;SDS_P1;SDS_P2;PMS_P1;PMS_P2;Temp;Humidity;BMP_temperature;BMP_pressure;BME280_temperature;BME280_humidity;BME280_pressure;Samples;Min_cycle;Max_cycle;Signal;HPM_P1;HPM_P2
2023/05/21 00:01:48;;;;;;;17.48;12.45;;;16.00;79.90;;;;;;5068511;28;20080;-66
2023/05/21 00:04:16;;;;;;;19.75;13.48;;;16.00;79.90;;;;;;5067775;28;20044;-65
2023/05/21 00:06:43;;;;;;;17.10;13.25;;;16.00;80.00;;;;;;5065835;28;20044;-77
2023/05/21 00:09:11;;;;;;;16.50;12.48;;;16.00;80.00;;;;;;5062148;28;20032;-77
2023/05/21 00:11:39;;;;;;;16.17;12.30;;;16.00;80.00;;;;;;5065449;28;20039;-66
2023/05/21 00:14:06;;;;;;;18.30;13.38;;;16.00;79.80;;;;;;5069738;28;20058;-64
2023/05/21 00:16:33;;;;;;;18.73;13.98;;;16.00;79.90;;;;;;5065512;28;20056;-64
2023/05/21 00:19:01;;;;;;;18.45;13.75;;;16.00;79.90;;;;;;5068720;28;20051;-63
2023/05/21 00:21:28;;;;;;;17.48;12.52;;;16.00;80.00;;;;;;5070248;28;20045;-62
2023/05/21 00:23:56;;;;;;;16.85;12.63;;;16.00;79.90;;;;;;5070013;28;20415;-60
2023/05/21 00:26:23;;;;;;;18.13;13.25;;;15.90;80.00;;;;;;5064555;28;20512;-63
2023/05/21 00:28:55;;;;;;;18.52;12.63;;;16.00;79.90;;;;;;5065595;28;20079;-61
2023/05/21 00:31:22;;;;;;;18.48;13.45;;;16.00;79.80;;;;;;5069305;28;20565;-67
2023/05/21 00:33:49;;;;;;;15.43;12.43;;;16.00;79.70;;;;;;5067490;28;20045;-65
2023/05/21 00:36:16;;;;;;;19.50;13.77;;;16.00;79.60;;;;;;5067311;28;20032;-62
2023/05/21 00:38:44;;;;;;;19.08;13.85;;;16.00;79.70;;;;;;5049877;28;20053;-59
2023/05/21 00:41:11;;;;;;;18.60;13.02;;;15.90;79.80;;;;;;5050259;28;20135;-69
2023/05/21 00:43:39;;;;;;;16.15;12.18;;;15.90;79.90;;;;;;5058325;28;20053;-69
2023/05/21 00:46:10;;;;;;;16.95;13.32;;;15.90;79.80;;;;;;5065434;28;20053;-66
2023/05/21 00:48:38;;;;;;;16.90;12.82;;;15.90;79.90;;;;;;5052051;28;20102;-64
2023/05/21 00:51:06;;;;;;;17.45;12.88;;;15.90;79.70;;;;;;5068428;28;20051;-75
2023/05/21 00:53:33;;;;;;;17.10;12.73;;;15.90;79.90;;;;;;5054166;28;20052;-75
2023/05/21 00:56:01;;;;;;;17.50;13.20;;;15.80;80.00;;;;;;5068170;28;20551;-74
2023/05/21 00:58:28;;;;;;;19.10;13.50;;;15.80;79.90;;;;;;5041753;28;20449;-76
2023/05/21 01:00:55;;;;;;;16.00;12.40;;;15.80;79.70;;;;;;5042358;28;20053;-67
2023/05/21 01:03:24;;;;;;;16.73;12.80;;;15.80;80.10;;;;;;5035990;28;20138;-64
2023/05/21 01:05:52;;;;;;;18.98;13.05;;;15.90;79.90;;;;;;5065700;28;20044;-60
2023/05/21 01:08:19;;;;;;;18.33;13.70;;;15.90;79.80;;;;;;5058576;28;20036;-62
2023/05/21 01:10:46;;;;;;;16.92;13.25;;;15.90;79.80;;;;;;5066666;28;20048;-65
2023/05/21 01:13:15;;;;;;;19.45;13.68;;;15.90;79.80;;;;;;5040499;28;20480;-64
2023/05/21 01:15:43;;;;;;;16.83;12.45;;;15.90;79.90;;;;;;5066541;28;20136;-74
2023/05/21 01:18:11;;;;;;;18.02;12.93;;;15.80;79.90;;;;;;5067259;28;20052;-72
2023/05/21 01:20:41;;;;;;;17.35;13.07;;;15.80;79.80;;;;;;5065791;28;20103;-67
2023/05/21 01:23:09;;;;;;;16.45;12.77;;;15.80;79.90;;;;;;5052732;28;20103;-66
2023/05/21 01:25:36;;;;;;;16.00;12.63;;;15.80;79.90;;;;;;5053187;28;20120;-62
2023/05/21 01:28:03;;;;;;;17.25;12.82;;;15.80;79.90;;;;;;5062339;28;20044;-61
2023/05/21 01:30:30;;;;;;;17.83;13.27;;;15.80;79.80;;;;;;5050453;28;20055;-63
2023/05/21 01:33:03;;;;;;;17.58;12.90;;;15.70;80.10;;;;;;5045860;28;20040;-61
2023/05/21 01:35:34;;;;;;;19.15;13.57;;;15.70;80.00;;;;;;5042062;28;20132;-74
2023/05/21 01:38:09;;;;;;;17.27;12.90;;;15.70;80.10;;;;;;5029309;28;20049;-76
2023/05/21 01:40:45;;;;;;;19.50;14.05;;;15.70;80.10;;;;;;5042573;28;20045;-66
2023/05/21 01:43:13;;;;;;;17.30;13.07;;;15.70;80.30;;;;;;5061391;28;20053;-68
2023/05/21 01:45:42;;;;;;;18.73;13.95;;;15.70;80.20;;;;;;5055455;28;20055;-63
2023/05/21 01:48:11;;;;;;;19.15;14.05;;;15.70;80.10;;;;;;5042614;28;20068;-61
2023/05/21 01:50:40;;;;;;;20.35;13.18;;;15.70;80.30;;;;;;5037585;28;20139;-64
2023/05/21 01:53:07;;;;;;;18.95;13.18;;;15.70;80.20;;;;;;5047398;28;20053;-64
2023/05/21 01:55:38;;;;;;;18.48;13.80;;;15.70;80.20;;;;;;5057562;28;20041;-65
2023/05/21 01:58:06;;;;;;;18.75;13.82;;;15.70;80.40;;;;;;5050982;28;20063;-67
2023/05/21 02:00:33;;;;;;;21.15;13.20;;;15.70;80.30;;;;;;5061448;28;20037;-68
2023/05/21 02:03:00;;;;;;;18.95;12.88;;;15.70;80.30;;;;;;5059024;28;20144;-67
2023/05/21 02:05:27;;;;;;;17.60;13.35;;;15.60;80.40;;;;;;5038043;28;20487;-65
2023/05/21 02:07:54;;;;;;;18.98;13.32;;;15.60;80.40;;;;;;5057813;28;20128;-67
2023/05/21 02:10:21;;;;;;;16.88;12.73;;;15.60;80.50;;;;;;5064595;28;20396;-67
2023/05/21 02:12:48;;;;;;;17.50;13.30;;;15.60;80.60;;;;;;5046670;28;20515;-69
2023/05/21 02:15:18;;;;;;;16.15;12.70;;;15.60;80.70;;;;;;5046762;28;20045;-69
2023/05/21 02:17:45;;;;;;;17.33;13.45;;;15.50;80.70;;;;;;5058490;28;20049;-62
2023/05/21 02:20:13;;;;;;;18.20;12.98;;;15.60;80.90;;;;;;5048511;28;20067;-62
2023/05/21 02:22:41;;;;;;;17.48;14.02;;;15.60;80.90;;;;;;5060394;28;20606;-71
2023/05/21 02:25:09;;;;;;;20.27;13.48;;;15.50;81.10;;;;;;5048671;28;20417;-70
2023/05/21 02:27:37;;;;;;;20.48;13.73;;;15.50;81.30;;;;;;5047301;28;20098;-74
2023/05/21 02:30:06;;;;;;;17.77;13.68;;;15.50;81.30;;;;;;5045758;28;20094;-75
2023/05/21 02:32:35;;;;;;;18.35;13.88;;;15.50;81.00;;;;;;5064466;28;20048;-61
2023/05/21 02:35:03;;;;;;;17.65;12.73;;;15.60;81.00;;;;;;5066740;28;20519;-62
2023/05/21 02:37:32;;;;;;;17.63;13.82;;;15.50;81.00;;;;;;5067312;28;20101;-74
2023/05/21 02:40:00;;;;;;;17.90;13.38;;;15.50;80.90;;;;;;5066157;28;20052;-73
2023/05/21 02:42:27;;;;;;;17.77;13.20;;;15.50;80.90;;;;;;5066849;28;20052;-62
2023/05/21 02:44:54;;;;;;;20.17;14.30;;;15.60;80.70;;;;;;5041137;28;20132;-62
2023/05/21 02:47:22;;;;;;;19.83;14.02;;;15.60;80.70;;;;;;5044972;28;20431;-69
2023/05/21 02:49:51;;;;;;;18.13;13.75;;;15.60;80.70;;;;;;5039057;28;20090;-69
2023/05/21 02:52:19;;;;;;;17.40;13.20;;;15.50;80.90;;;;;;5064416;28;20066;-65
2023/05/21 02:54:46;;;;;;;17.45;14.07;;;15.60;80.80;;;;;;5063765;28;20053;-65
2023/05/21 02:57:14;;;;;;;18.70;13.13;;;15.60;80.70;;;;;;5045589;28;20044;-63
2023/05/21 02:59:40;;;;;;;18.15;13.13;;;15.60;80.90;;;;;;5056094;28;20534;-63
2023/05/21 03:02:07;;;;;;;18.33;13.68;;;15.50;80.90;;;;;;5027670;28;20041;-63
2023/05/21 03:04:37;;;;;;;18.00;13.40;;;15.50;81.00;;;;;;5045127;28;20580;-62
2023/05/21 03:07:06;;;;;;;17.08;13.40;;;15.50;81.00;;;;;;5034780;28;20045;-64
2023/05/21 03:09:32;;;;;;;17.85;13.50;;;15.40;81.00;;;;;;5055232;28;20476;-64
2023/05/21 03:12:00;;;;;;;18.38;13.20;;;15.50;80.90;;;;;;5037091;28;20063;-62
2023/05/21 03:14:27;;;;;;;17.15;13.57;;;15.40;81.20;;;;;;5040914;28;20063;-64
2023/05/21 03:16:54;;;;;;;20.50;14.77;;;15.40;81.10;;;;;;5060053;28;20123;-75
2023/05/21 03:19:21;;;;;;;19.77;14.13;;;15.40;81.20;;;;;;5044471;28;20044;-75
2023/05/21 03:21:49;;;;;;;18.23;14.10;;;15.40;81.10;;;;;;5063989;28;20056;-69
2023/05/21 03:24:17;;;;;;;17.45;13.50;;;15.40;81.30;;;;;;5033605;28;20118;-69
2023/05/21 03:26:49;;;;;;;21.00;14.07;;;15.40;81.40;;;;;;5033903;28;20049;-67
2023/05/21 03:29:16;;;;;;;20.15;14.45;;;15.40;81.10;;;;;;5062344;28;20060;-69
2023/05/21 03:31:44;;;;;;;20.63;14.73;;;15.30;81.30;;;;;;5041682;28;20053;-67
2023/05/21 03:34:13;;;;;;;18.55;14.50;;;15.40;81.20;;;;;;5047902;28;20059;-66
2023/05/21 03:36:40;;;;;;;19.73;14.45;;;15.40;81.10;;;;;;5060385;28;20072;-66
2023/05/21 03:39:08;;;;;;;18.45;14.30;;;15.40;81.30;;;;;;5037536;28;20562;-67
2023/05/21 03:41:36;;;;;;;18.73;13.88;;;15.30;81.30;;;;;;5042258;28;20140;-65
2023/05/21 03:44:10;;;;;;;18.08;13.75;;;15.30;81.40;;;;;;5042653;28;20055;-66
2023/05/21 03:46:47;;;;;;;19.77;13.93;;;15.30;81.40;;;;;;5055731;28;20044;-68
2023/05/21 03:49:26;;;;;;;19.10;14.15;;;15.30;81.30;;;;;;5039107;28;20056;-68
2023/05/21 03:51:55;;;;;;;19.42;13.15;;;15.30;81.40;;;;;;5046577;28;20053;-75
2023/05/21 03:54:23;;;;;;;19.83;14.70;;;15.30;81.40;;;;;;5063152;28;20059;-75
2023/05/21 03:56:55;;;;;;;17.02;13.65;;;15.30;81.40;;;;;;5039898;28;20660;-62
2023/05/21 03:59:23;;;;;;;18.85;13.70;;;15.20;81.40;;;;;;5040934;28;20048;-61
2023/05/21 04:01:51;;;;;;;19.27;14.18;;;15.30;81.50;;;;;;5041294;28;20085;-66
2023/05/21 04:04:18;;;;;;;22.73;14.55;;;15.20;81.50;;;;;;5039286;28;20052;-64
2023/05/21 04:06:45;;;;;;;20.20;13.90;;;15.30;81.40;;;;;;5045997;28;20136;-75
2023/05/21 04:09:13;;;;;;;18.27;13.70;;;15.30;81.40;;;;;;5044896;28;20504;-74
2023/05/21 04:11:40;;;;;;;19.65;13.75;;;15.30;81.60;;;;;;5054136;28;20056;-76
2023/05/21 04:14:08;;;;;;;19.33;14.35;;;15.30;81.30;;;;;;5039427;28;20052;-75
2023/05/21 04:16:37;;;;;;;18.08;13.70;;;15.30;81.40;;;;;;5044580;28;20045;-69
2023/05/21 04:19:04;;;;;;;18.58;13.80;;;15.30;81.60;;;;;;5067121;28;20510;-69
2023/05/21 04:21:31;;;;;;;20.25;14.15;;;15.30;81.40;;;;;;5052581;28;20041;-74
2023/05/21 04:23:59;;;;;;;18.95;13.68;;;15.30;81.30;;;;;;5047250;28;20041;-72
2023/05/21 04:26:48;;;;;;;20.25;14.10;;;15.30;81.30;;;;;;5063173;28;20190;-61
2023/05/21 04:29:19;;;;;;;18.27;13.80;;;15.30;81.50;;;;;;5046003;28;20045;-61
2023/05/21 04:31:48;;;;;;;20.67;14.38;;;15.30;81.50;;;;;;5045652;28;20056;-75
2023/05/21 04:34:17;;;;;;;20.77;14.30;;;15.30;81.30;;;;;;5059507;28;20079;-76
2023/05/21 04:36:45;;;;;;;18.25;13.80;;;15.30;81.40;;;;;;5039673;28;20098;-70
2023/05/21 04:39:13;;;;;;;18.42;13.68;;;15.30;81.30;;;;;;5059400;28;20056;-69
2023/05/21 04:41:40;;;;;;;16.80;13.60;;;15.30;81.30;;;;;;5066837;28;20062;-66
2023/05/21 04:44:08;;;;;;;20.80;14.70;;;15.40;81.50;;;;;;5061187;28;20147;-63
2023/05/21 04:46:36;;;;;;;18.50;13.27;;;15.30;81.40;;;;;;5053976;28;20052;-65
2023/05/21 04:49:04;;;;;;;17.52;13.13;;;15.40;81.60;;;;;;5066870;28;20040;-64
2023/05/21 04:51:31;;;;;;;20.38;14.20;;;15.40;81.60;;;;;;5069451;28;20044;-60
2023/05/21 04:53:58;;;;;;;17.23;12.68;;;15.40;81.40;;;;;;5064796;28;20565;-62
2023/05/21 04:56:26;;;;;;;20.13;13.75;;;15.40;81.60;;;;;;5064045;28;20068;-68
2023/05/21 04:58:53;;;;;;;19.65;13.85;;;15.40;81.50;;;;;;5037550;28;20132;-69
2023/05/21 05:01:22;;;;;;;19.58;13.75;;;15.40;81.50;;;;;;5044323;28;20153;-70
2023/05/21 05:03:50;;;;;;;17.42;13.65;;;15.50;81.40;;;;;;5064620;28;20110;-69
2023/05/21 05:06:17;;;;;;;18.88;14.20;;;15.50;81.50;;;;;;5066489;28;20068;-70
2023/05/21 05:08:46;;;;;;;20.75;14.50;;;15.50;81.30;;;;;;5040314;28;20036;-70
2023/05/21 05:11:13;;;;;;;20.90;15.30;;;15.60;81.40;;;;;;5057290;28;20056;-63
2023/05/21 05:13:41;;;;;;;18.50;13.88;;;15.60;81.20;;;;;;5048456;28;20075;-64
2023/05/21 05:16:08;;;;;;;18.63;13.68;;;15.60;81.30;;;;;;5041010;28;20144;-68
2023/05/21 05:18:36;;;;;;;19.40;13.20;;;15.60;81.30;;;;;;5066456;28;20522;-69
2023/05/21 05:21:04;;;;;;;19.00;14.35;;;15.60;81.20;;;;;;5041050;28;20106;-61
2023/05/21 05:23:31;;;;;;;17.55;12.82;;;15.60;81.40;;;;;;5044189;28;20135;-60
2023/05/21 05:25:58;;;;;;;16.70;13.60;;;15.60;81.20;;;;;;5066045;28;20051;-65
2023/05/21 05:28:25;;;;;;;19.40;14.15;;;15.70;81.50;;;;;;5063202;28;20133;-61
2023/05/21 05:30:52;;;;;;;18.27;13.45;;;15.70;81.30;;;;;;5062318;28;20064;-73
2023/05/21 05:33:23;;;;;;;18.63;14.18;;;15.70;81.30;;;;;;5045499;28;20049;-73
2023/05/21 05:35:50;;;;;;;19.48;13.70;;;15.70;81.30;;;;;;5040934;28;20048;-62
2023/05/21 05:38:19;;;;;;;18.83;13.80;;;15.70;81.20;;;;;;5037702;28;20040;-60
2023/05/21 05:40:46;;;;;;;18.13;14.52;;;15.80;81.10;;;;;;5062367;28;20056;-63
2023/05/21 05:43:14;;;;;;;17.23;13.30;;;15.90;81.00;;;;;;5048870;28;20074;-63
2023/05/21 05:45:41;;;;;;;21.38;14.23;;;15.90;81.00;;;;;;5061690;28;20045;-64
2023/05/21 05:48:12;;;;;;;17.27;13.50;;;15.90;80.90;;;;;;5045941;28;20097;-66
2023/05/21 05:50:39;;;;;;;19.90;13.48;;;15.90;80.60;;;;;;5055620;28;20049;-69
2023/05/21 05:53:07;;;;;;;19.13;13.93;;;16.00;80.90;;;;;;5058751;28;20044;-68
2023/05/21 05:55:35;;;;;;;18.25;13.40;;;16.00;80.60;;;;;;5045162;28;20326;-70
2023/05/21 05:58:03;;;;;;;21.38;14.07;;;16.00;80.70;;;;;;5033021;28;20041;-70
2023/05/21 06:00:30;;;;;;;19.25;14.00;;;16.00;80.70;;;;;;5046641;28;20099;-72
2023/05/21 06:02:59;;;;;;;19.83;13.60;;;16.10;80.90;;;;;;5067013;28;20055;-68
2023/05/21 06:05:27;;;;;;;19.90;13.98;;;16.10;80.90;;;;;;5045250;28;20538;-68
2023/05/21 06:07:54;;;;;;;17.65;13.25;;;16.20;80.70;;;;;;5042450;28;20055;-68
2023/05/21 06:10:21;;;;;;;20.42;15.15;;;16.30;80.90;;;;;;5065407;28;20105;-68
2023/05/21 06:12:49;;;;;;;17.05;13.50;;;16.30;80.70;;;;;;5057831;28;20155;-68
2023/05/21 06:15:18;;;;;;;18.50;14.52;;;16.40;80.70;;;;;;5040229;28;20044;-69
2023/05/21 06:17:45;;;;;;;18.83;14.48;;;16.40;81.10;;;;;;5042558;28;20056;-69
2023/05/21 06:20:13;;;;;;;18.23;13.77;;;16.50;81.20;;;;;;5045404;28;20098;-69
2023/05/21 06:22:40;;;;;;;19.10;15.35;;;16.60;80.60;;;;;;5048987;28;20064;-76
2023/05/21 06:25:10;;;;;;;20.13;14.98;;;16.60;80.50;;;;;;5054691;28;20054;-75
2023/05/21 06:27:37;;;;;;;18.60;13.48;;;16.70;80.80;;;;;;5041665;28;20495;-72
2023/05/21 06:30:11;;;;;;;19.45;14.73;;;16.80;80.30;;;;;;5036495;28;20067;-72
2023/05/21 06:32:38;;;;;;;19.75;15.30;;;16.80;80.20;;;;;;5062094;28;20503;-69
2023/05/21 06:35:06;;;;;;;21.45;14.82;;;17.00;80.50;;;;;;5066778;28;20118;-68
2023/05/21 06:37:33;;;;;;;16.80;13.80;;;17.10;80.00;;;;;;5065047;28;20049;-67
2023/05/21 06:39:59;;;;;;;19.73;14.25;;;17.20;80.10;;;;;;5040179;28;20131;-68
2023/05/21 06:42:26;;;;;;;18.60;14.30;;;17.40;79.80;;;;;;5036319;28;20053;-68
2023/05/21 06:45:15;;;;;;;17.17;14.20;;;17.60;79.70;;;;;;5063085;28;20450;-69
2023/05/21 06:47:44;;;;;;;18.20;14.63;;;17.70;78.90;;;;;;5047263;28;20099;-77
2023/05/21 06:50:11;;;;;;;18.25;14.00;;;17.90;78.80;;;;;;5037268;28;20050;-77
2023/05/21 06:52:38;;;;;;;18.55;13.95;;;18.10;78.40;;;;;;5045244;28;20051;-70
2023/05/21 06:55:07;;;;;;;20.48;14.35;;;18.10;78.30;;;;;;5053184;28;20044;-69
2023/05/21 06:57:54;;;;;;;18.23;13.52;;;18.10;77.90;;;;;;5063295;28;20471;-70
2023/05/21 07:00:23;;;;;;;17.95;13.93;;;18.20;77.90;;;;;;5036363;28;20045;-69
2023/05/21 07:02:50;;;;;;;17.20;13.93;;;18.30;77.90;;;;;;5055857;28;20049;-65
2023/05/21 07:05:17;;;;;;;17.42;13.60;;;18.30;77.70;;;;;;5055915;28;20056;-63
2023/05/21 07:07:44;;;;;;;17.30;13.88;;;18.40;77.80;;;;;;5066625;28;20041;-64
2023/05/21 07:10:11;;;;;;;15.95;13.30;;;18.50;77.40;;;;;;5063047;28;20059;-63
2023/05/21 07:12:40;;;;;;;17.83;13.00;;;18.60;76.90;;;;;;5049598;28;20041;-64
2023/05/21 07:15:08;;;;;;;16.52;13.35;;;18.60;76.40;;;;;;5038380;28;20412;-64
2023/05/21 07:17:37;;;;;;;18.33;13.90;;;18.80;76.20;;;;;;5061116;28;20049;-74
2023/05/21 07:20:06;;;;;;;16.90;13.38;;;19.00;75.70;;;;;;5056787;28;20045;-73
2023/05/21 07:22:33;;;;;;;15.70;12.95;;;19.10;75.30;;;;;;5054029;28;20049;-67
2023/05/21 07:25:00;;;;;;;15.95;12.27;;;19.20;75.30;;;;;;5046467;28;20049;-66
2023/05/21 07:27:27;;;;;;;16.85;13.40;;;19.30;74.70;;;;;;5060904;28;20052;-64
2023/05/21 07:29:55;;;;;;;16.02;12.60;;;19.50;74.50;;;;;;5058046;28;20049;-65
2023/05/21 07:32:22;;;;;;;15.43;12.57;;;19.60;74.20;;;;;;5044590;28;20120;-65
2023/05/21 07:34:51;;;;;;;14.60;12.80;;;19.60;74.20;;;;;;5035388;28;20044;-64
2023/05/21 07:37:19;;;;;;;;;;;19.80;73.60;;;;;;5038151;28;20164;-60
2023/05/21 07:39:47;;;;;;;17.98;12.55;;;20.00;73.10;;;;;;5038942;28;19921;-61
2023/05/21 07:42:14;;;;;;;15.60;12.38;;;20.10;72.80;;;;;;5037028;28;20132;-62
2023/05/21 07:44:41;;;;;;;16.52;12.90;;;20.30;72.10;;;;;;5049594;28;20867;-64
2023/05/21 07:47:08;;;;;;;15.32;12.43;;;20.40;72.10;;;;;;5045120;28;20136;-65
2023/05/21 07:49:35;;;;;;;15.60;11.95;;;20.50;71.90;;;;;;5040312;28;20557;-64
2023/05/21 07:52:05;;;;;;;13.50;11.65;;;20.70;71.30;;;;;;5049107;28;20040;-68
2023/05/21 07:54:32;;;;;;;15.32;12.38;;;20.90;71.10;;;;;;5041511;28;20561;-69
2023/05/21 07:57:00;;;;;;;15.40;12.02;;;21.00;70.80;;;;;;5041983;28;20179;-68
2023/05/21 07:59:46;;;;;;;14.20;11.57;;;21.20;71.10;;;;;;5065829;28;20068;-69
2023/05/21 08:02:13;;;;;;;14.15;11.48;;;21.20;70.80;;;;;;5046264;28;20044;-64
2023/05/21 08:04:41;;;;;;;14.75;11.63;;;21.30;70.10;;;;;;5047851;28;20492;-64
2023/05/21 08:07:09;;;;;;;13.90;11.20;;;21.50;70.00;;;;;;5038033;28;20049;-69
2023/05/21 08:09:36;;;;;;;14.60;11.02;;;21.60;69.50;;;;;;5042449;28;20125;-69
2023/05/21 08:12:03;;;;;;;14.30;10.73;;;21.70;69.40;;;;;;5063084;28;20040;-74
2023/05/21 08:14:31;;;;;;;14.73;11.50;;;21.90;69.00;;;;;;5049297;28;20041;-73
2023/05/21 08:16:58;;;;;;;12.43;10.93;;;22.00;68.80;;;;;;5037421;28;20055;-72
2023/05/21 08:19:25;;;;;;;14.00;10.20;;;22.10;68.40;;;;;;5067371;28;20132;-73
2023/05/21 08:21:52;;;;;;;13.32;9.90;;;22.20;68.20;;;;;;5069245;28;20052;-74
2023/05/21 08:24:20;;;;;;;11.93;10.38;;;22.40;67.60;;;;;;5035978;28;20144;-72
2023/05/21 08:26:48;;;;;;;11.82;9.32;;;22.40;67.30;;;;;;5051359;28;20059;-73
2023/05/21 08:29:18;;;;;;;11.65;9.85;;;22.60;66.60;;;;;;5041793;28;20089;-74
2023/05/21 08:31:47;;;;;;;13.88;9.60;;;22.60;66.30;;;;;;5041944;28;20142;-68
2023/05/21 08:34:15;;;;;;;14.32;9.55;;;22.70;65.80;;;;;;5047484;28;20113;-68
2023/05/21 08:36:48;;;;;;;12.05;9.40;;;22.80;65.50;;;;;;5045212;28;20057;-68
2023/05/21 08:39:35;;;;;;;10.48;9.25;;;22.80;65.30;;;;;;5058166;28;20059;-68
2023/05/21 08:42:10;;;;;;;10.73;8.80;;;22.80;65.40;;;;;;5046861;28;20068;-68
2023/05/21 08:44:40;;;;;;;11.65;9.40;;;22.80;65.40;;;;;;5042191;28;20246;-67
2023/05/21 08:47:10;;;;;;;9.55;7.93;;;22.80;65.90;;;;;;5043229;28;20056;-70
2023/05/21 08:49:37;;;;;;;13.27;9.25;;;22.90;65.50;;;;;;5069104;28;20052;-69
2023/05/21 08:52:06;;;;;;;11.20;8.70;;;22.90;64.60;;;;;;5059484;28;20049;-66
2023/05/21 08:54:35;;;;;;;13.68;7.90;;;22.90;63.40;;;;;;5038500;28;20072;-64
2023/05/21 08:57:04;;;;;;;10.48;8.07;;;23.00;63.40;;;;;;5058201;28;20071;-65
2023/05/21 08:59:31;;;;;;;10.07;7.40;;;23.10;62.00;;;;;;5066652;28;20097;-64
2023/05/21 09:01:58;;;;;;;9.88;7.95;;;23.20;62.20;;;;;;5040477;28;20044;-64
2023/05/21 09:04:33;;;;;;;10.25;8.13;;;23.20;62.30;;;;;;5044972;28;20052;-64
2023/05/21 09:07:01;;;;;;;10.48;8.25;;;23.30;60.90;;;;;;5045820;28;20048;-64
2023/05/21 09:09:56;;;;;;;10.45;7.45;;;23.50;60.20;;;;;;5064035;28;20045;-64
2023/05/21 09:12:24;;;;;;;9.70;7.15;;;23.60;59.50;;;;;;5040241;28;20071;-65
2023/05/21 09:14:51;;;;;;;10.98;7.78;;;23.70;58.80;;;;;;5040517;28;20051;-63
2023/05/21 09:17:21;;;;;;;11.27;8.40;;;23.80;58.50;;;;;;5060804;28;20416;-64
2023/05/21 09:20:10;;;;;;;10.40;8.07;;;24.00;58.70;;;;;;5047186;28;20048;-63
2023/05/21 09:22:40;;;;;;;;;;;24.10;58.80;;;;;;5040626;28;20100;-64
2023/05/21 09:25:10;;;;;;;8.38;7.03;;;24.20;57.80;;;;;;5069404;28;19931;-64
2023/05/21 09:27:38;;;;;;;11.30;7.82;;;24.20;56.90;;;;;;5063095;28;20040;-65
2023/05/21 09:30:10;;;;;;;9.68;7.30;;;24.30;57.50;;;;;;5039146;28;20488;-65
2023/05/21 09:32:37;;;;;;;10.65;7.32;;;24.40;56.50;;;;;;5047961;28;20048;-64
2023/05/21 09:35:09;;;;;;;9.93;7.18;;;24.40;56.60;;;;;;5042379;28;20068;-63
2023/05/21 09:37:42;;;;;;;10.02;7.60;;;24.50;57.10;;;;;;5049207;28;20048;-65
2023/05/21 09:40:15;;;;;;;12.30;9.02;;;24.50;56.70;;;;;;5065966;28;20052;-64
2023/05/21 09:42:46;;;;;;;12.98;9.30;;;24.60;56.90;;;;;;5043979;28;20127;-63
2023/05/21 09:45:18;;;;;;;12.50;9.30;;;24.60;56.70;;;;;;5043966;28;20098;-64
2023/05/21 09:47:46;;;;;;;11.82;8.52;;;24.60;56.40;;;;;;5043233;28;20044;-64
2023/05/21 09:50:17;;;;;;;14.18;9.05;;;24.60;56.50;;;;;;5060047;28;20123;-65
2023/05/21 09:52:44;;;;;;;14.40;10.07;;;24.60;56.60;;;;;;5061348;28;20397;-64
2023/05/21 09:55:12;;;;;;;14.57;10.30;;;24.70;56.50;;;;;;5058868;28;20624;-64
2023/05/21 09:57:46;;;;;;;13.90;10.27;;;24.70;55.90;;;;;;5066094;28;20059;-65
2023/05/21 10:00:20;;;;;;;18.30;13.43;;;24.70;56.50;;;;;;5064115;28;20051;-64
2023/05/21 10:02:48;;;;;;;19.40;14.38;;;24.70;56.50;;;;;;5063815;28;20048;-64
2023/05/21 10:05:16;;;;;;;26.30;20.63;;;24.70;56.50;;;;;;5067349;28;20602;-64
2023/05/21 10:07:47;;;;;;;19.43;15.33;;;24.80;55.80;;;;;;5060727;28;20040;-64
2023/05/21 10:10:15;;;;;;;18.05;14.02;;;25.00;55.40;;;;;;5061646;28;20048;-64
2023/05/21 10:12:46;;;;;;;16.17;13.20;;;25.10;55.30;;;;;;5064173;28;20052;-65
2023/05/21 10:15:22;;;;;;;20.65;15.95;;;25.10;55.90;;;;;;5063959;28;20051;-65
2023/05/21 10:17:49;;;;;;;19.67;14.52;;;25.20;56.20;;;;;;5062435;28;20049;-63
2023/05/21 10:20:16;;;;;;;18.60;14.85;;;25.30;54.60;;;;;;5061138;28;20049;-63
2023/05/21 10:22:45;;;;;;;19.65;13.48;;;25.40;54.70;;;;;;5062628;28;20098;-62
2023/05/21 10:25:13;;;;;;;17.25;11.57;;;25.40;54.80;;;;;;5066859;28;20044;-66
2023/05/21 10:27:41;;;;;;;13.73;10.88;;;25.50;54.80;;;;;;5063570;28;20051;-66
2023/05/21 10:30:11;;;;;;;12.65;9.75;;;25.50;54.90;;;;;;5037255;28;20043;-66
2023/05/21 10:32:40;;;;;;;14.32;10.30;;;25.40;54.80;;;;;;5062339;28;20052;-66
2023/05/21 10:35:08;;;;;;;18.17;12.93;;;25.40;54.80;;;;;;5057092;28;20049;-67
2023/05/21 10:37:36;;;;;;;16.17;12.65;;;25.40;55.70;;;;;;5067079;28;20098;-67
2023/05/21 10:40:04;;;;;;;15.73;10.80;;;25.40;55.70;;;;;;5065991;28;20036;-66
2023/05/21 10:43:01;;;;;;;14.57;11.25;;;25.50;54.90;;;;;;5062825;28;20091;-66
2023/05/21 10:45:38;;;;;;;16.05;10.98;;;25.50;54.50;;;;;;5059284;28;20049;-65
2023/05/21 10:48:18;;;;;;;14.30;9.80;;;25.50;54.90;;;;;;5059139;28;20084;-67
2023/05/21 10:51:00;;;;;;;14.32;10.10;;;25.50;54.70;;;;;;5055143;28;20141;-66
2023/05/21 10:53:37;;;;;;;12.45;9.18;;;25.50;54.60;;;;;;5060852;28;20396;-67
2023/05/21 10:56:17;;;;;;;12.82;9.25;;;25.60;53.80;;;;;;5060293;28;20053;-67
2023/05/21 10:59:00;;;;;;;10.90;8.85;;;25.60;54.40;;;;;;5064837;28;20068;-66
2023/05/21 11:01:32;;;;;;;12.02;9.10;;;25.60;52.50;;;;;;5060639;28;20052;-77
2023/05/21 11:03:59;;;;;;;11.88;9.43;;;25.60;52.00;;;;;;5064322;28;20045;-75
2023/05/21 11:06:27;;;;;;;13.27;9.65;;;25.70;52.10;;;;;;5060971;28;20057;-65
2023/05/21 11:08:54;;;;;;;14.52;10.60;;;25.70;52.10;;;;;;5057953;28;20051;-63
2023/05/21 11:11:41;;;;;;;17.88;12.00;;;25.80;52.30;;;;;;5063073;28;20064;-76
2023/05/21 11:14:26;;;;;;;15.40;10.85;;;25.90;49.90;;;;;;5063743;28;20617;-74
2023/05/21 11:16:55;;;;;;;15.48;11.60;;;26.00;51.90;;;;;;5059514;28;20044;-67
2023/05/21 11:19:32;;;;;;;17.00;13.52;;;26.00;52.50;;;;;;5062711;28;20084;-66
2023/05/21 11:21:58;;;;;;;18.23;13.15;;;26.10;52.70;;;;;;5065996;28;20135;-69
2023/05/21 11:24:27;;;;;;;16.13;12.52;;;26.10;52.10;;;;;;5067460;28;20056;-68
2023/05/21 11:27:05;;;;;;;17.48;12.23;;;26.20;51.60;;;;;;5064001;28;20049;-63
2023/05/21 11:29:43;;;;;;;13.30;10.25;;;26.20;50.20;;;;;;5062580;28;20066;-64
2023/05/21 11:32:13;;;;;;;12.83;10.43;;;26.30;48.50;;;;;;5065598;28;20045;-63
2023/05/21 11:34:42;;;;;;;13.60;9.82;;;26.40;50.00;;;;;;5062189;28;20497;-64
2023/05/21 11:37:33;;;;;;;10.63;9.13;;;26.30;51.10;;;;;;5062780;28;20499;-63
2023/05/21 11:40:20;;;;;;;10.57;8.52;;;26.30;49.50;;;;;;5069660;28;20049;-64
2023/05/21 11:42:51;;;;;;;10.27;8.75;;;26.20;49.70;;;;;;5060230;28;20056;-63
2023/05/21 11:45:19;;;;;;;10.75;8.85;;;26.10;49.90;;;;;;5066435;28;20572;-64
2023/05/21 11:47:48;;;;;;;9.30;7.72;;;26.10;49.50;;;;;;5065120;28;20060;-63
2023/05/21 11:50:16;;;;;;;9.32;7.43;;;26.00;49.10;;;;;;5069143;28;20454;-68
2023/05/21 11:52:44;;;;;;;9.70;7.75;;;26.10;49.40;;;;;;5069772;28;20060;-68
2023/05/21 11:55:11;;;;;;;10.02;7.45;;;26.10;50.60;;;;;;5065793;28;20127;-66
2023/05/21 11:57:43;;;;;;;9.88;7.13;;;26.10;49.80;;;;;;5067253;28;20045;-67
2023/05/21 12:00:15;;;;;;;10.43;6.95;;;26.20;48.50;;;;;;5065226;28;20511;-67
2023/05/21 12:02:50;;;;;;;10.07;7.32;;;26.20;47.60;;;;;;5050527;28;20063;-67
2023/05/21 12:05:18;;;;;;;9.25;7.18;;;26.20;49.00;;;;;;5059106;28;20116;-66
2023/05/21 12:07:48;;;;;;;9.57;6.75;;;26.30;48.60;;;;;;5065170;28;20108;-68
2023/05/21 12:10:15;;;;;;;9.27;7.22;;;26.30;47.10;;;;;;5067663;28;20098;-67
2023/05/21 12:12:43;;;;;;;9.10;6.75;;;26.40;46.00;;;;;;5064052;28;20280;-67
2023/05/21 12:15:12;;;;;;;7.80;6.53;;;26.40;47.30;;;;;;5066651;28;20090;-67
2023/05/21 12:17:39;;;;;;;8.52;7.32;;;26.40;48.30;;;;;;5069585;28;20048;-67
2023/05/21 12:20:09;;;;;;;8.95;7.28;;;26.40;49.70;;;;;;5068665;28;20049;-68
2023/05/21 12:22:42;;;;;;;9.73;7.38;;;26.40;49.00;;;;;;5065535;28;20047;-67
2023/05/21 12:25:10;;;;;;;9.55;6.97;;;26.50;48.10;;;;;;5067297;28;20053;-66
2023/05/21 12:27:38;;;;;;;10.25;6.70;;;26.50;48.50;;;;;;5049772;28;20139;-67
2023/05/21 12:30:07;;;;;;;9.57;7.65;;;26.50;50.50;;;;;;5069972;28;20051;-67
2023/05/21 12:32:34;;;;;;;9.30;7.15;;;26.40;50.50;;;;;;5066257;28;20048;-68
2023/05/21 12:35:01;;;;;;;9.38;7.35;;;26.30;49.80;;;;;;5064923;28;20044;-68
2023/05/21 12:37:31;;;;;;;10.85;7.70;;;26.30;49.50;;;;;;5049423;28;20113;-62
2023/05/21 12:39:59;;;;;;;9.10;6.60;;;26.20;49.70;;;;;;5055357;28;20092;-62
2023/05/21 12:42:28;;;;;;;10.18;8.10;;;26.30;48.80;;;;;;5068730;28;20598;-63